createdAt,value
2022-12-11T00:01:23.836Z,16.17
2022-12-11T00:03:55.960Z,18.65
2022-12-11T00:06:26.019Z,20.35
2022-12-11T00:08:56.040Z,18.92
2022-12-11T00:11:25.926Z,17.83
2022-12-11T00:13:55.230Z,17.02
2022-12-11T00:16:27.136Z,17.05
2022-12-11T00:18:56.983Z,15.63
2022-12-11T00:21:26.310Z,17.92
2022-12-11T00:23:55.759Z,17.08
2022-12-11T00:26:25.311Z,20.08
2022-12-11T00:28:56.270Z,18.52
2022-12-11T00:31:26.112Z,16.98
2022-12-11T00:33:55.553Z,18.00
2022-12-11T00:36:26.127Z,17.85
2022-12-11T00:38:55.714Z,18.10
2022-12-11T00:41:25.171Z,19.30
2022-12-11T00:43:54.465Z,18.98
2022-12-11T00:46:23.835Z,19.88
2022-12-11T00:48:53.734Z,18.00
2022-12-11T00:51:23.839Z,19.63
2022-12-11T00:53:53.703Z,16.58
2022-12-11T00:56:25.355Z,20.42
2022-12-11T00:58:54.946Z,18.27
2022-12-11T01:01:26.861Z,18.55
2022-12-11T01:03:56.692Z,20.73
2022-12-11T01:06:26.747Z,17.38
2022-12-11T01:09:16.068Z,18.60
2022-12-11T01:11:43.186Z,18.42
2022-12-11T01:14:13.606Z,18.73
2022-12-11T01:16:43.052Z,16.33
2022-12-11T01:19:12.350Z,17.23
2022-12-11T01:21:41.597Z,18.08
2022-12-11T01:24:10.853Z,18.15
2022-12-11T01:26:40.344Z,17.85
2022-12-11T01:29:09.601Z,17.65
2022-12-11T01:31:38.886Z,16.50
2022-12-11T01:34:08.216Z,17.80
2022-12-11T01:36:37.440Z,17.23
2022-12-11T01:39:06.739Z,17.70
2022-12-11T01:41:35.980Z,17.33
2022-12-11T01:44:31.501Z,16.23
2022-12-11T01:47:00.998Z,18.77
2022-12-11T01:49:31.783Z,17.27
2022-12-11T01:52:04.035Z,18.08
2022-12-11T01:54:33.447Z,17.08
2022-12-11T01:57:05.622Z,19.02
2022-12-11T01:59:39.307Z,18.60
2022-12-11T02:02:26.990Z,16.90
2022-12-11T02:04:56.342Z,17.67
2022-12-11T02:07:26.130Z,17.95
2022-12-11T02:09:55.339Z,21.73
2022-12-11T02:12:32.947Z,19.85
2022-12-11T02:15:22.925Z,20.98
2022-12-11T02:18:10.601Z,20.52
2022-12-11T02:20:39.818Z,20.25
2022-12-11T02:23:21.856Z,19.05
2022-12-11T02:26:09.884Z,20.35
2022-12-11T02:28:42.399Z,18.55
2022-12-11T02:31:31.958Z,19.20
2022-12-11T02:34:01.198Z,18.95
2022-12-11T02:36:32.579Z,18.60
2022-12-11T02:39:03.797Z,20.10
2022-12-11T02:41:34.032Z,18.63
2022-12-11T02:44:05.235Z,19.08
2022-12-11T02:46:36.855Z,18.83
2022-12-11T02:49:08.232Z,19.60
2022-12-11T02:51:40.462Z,18.02
2022-12-11T02:54:11.932Z,19.10
2022-12-11T02:56:47.696Z,19.05
2022-12-11T02:59:18.828Z,17.30
2022-12-11T03:01:48.989Z,21.17
2022-12-11T03:04:24.866Z,19.50
2022-12-11T03:06:56.618Z,17.98
2022-12-11T03:09:25.913Z,19.60
2022-12-11T03:11:55.265Z,18.15
2022-12-11T03:14:24.576Z,18.52
2022-12-11T03:17:07.540Z,15.52
2022-12-11T03:19:44.336Z,16.85
2022-12-11T03:22:23.834Z,16.35
2022-12-11T03:24:55.308Z,17.45
2022-12-11T03:27:37.263Z,18.60
2022-12-11T03:30:06.554Z,19.08
2022-12-11T03:32:52.268Z,17.02
2022-12-11T03:35:29.269Z,19.00
2022-12-11T03:37:59.412Z,14.45
2022-12-11T03:40:29.634Z,17.95
2022-12-11T03:42:59.861Z,18.48
2022-12-11T03:45:30.879Z,17.67
2022-12-11T03:48:02.048Z,18.05
2022-12-11T03:50:33.701Z,16.23
2022-12-11T03:53:03.335Z,18.58
2022-12-11T03:55:33.388Z,18.73
2022-12-11T03:58:02.719Z,18.20
2022-12-11T04:00:32.116Z,19.00
2022-12-11T04:03:19.667Z,19.67
2022-12-11T04:05:50.059Z,15.55
2022-12-11T04:08:20.754Z,16.88
2022-12-11T04:11:12.782Z,16.58
2022-12-11T04:13:42.790Z,20.43
2022-12-11T04:16:09.631Z,17.50
2022-12-11T04:18:51.442Z,16.92
2022-12-11T04:21:39.126Z,17.75
2022-12-11T04:24:17.852Z,17.83
2022-12-11T04:26:48.971Z,16.60
2022-12-11T04:29:18.328Z,16.35
2022-12-11T04:31:48.285Z,19.30
2022-12-11T04:34:17.571Z,17.25
2022-12-11T04:36:46.965Z,17.63
2022-12-11T04:39:16.284Z,17.23
2022-12-11T04:41:45.538Z,16.33
2022-12-11T04:44:14.792Z,14.50
2022-12-11T04:46:44.702Z,15.20
2022-12-11T04:49:14.018Z,17.52
2022-12-11T04:51:43.756Z,17.48
2022-12-11T04:54:13.012Z,16.27
2022-12-11T04:56:42.302Z,16.15
2022-12-11T04:59:11.513Z,15.98
2022-12-11T05:01:40.796Z,16.98
2022-12-11T05:04:10.052Z,16.05
2022-12-11T05:06:39.301Z,13.68
2022-12-11T05:09:08.734Z,13.35
2022-12-11T05:11:38.980Z,13.93
2022-12-11T05:14:08.221Z,16.63
2022-12-11T05:16:37.427Z,15.80
2022-12-11T05:19:06.649Z,16.00
2022-12-11T05:21:35.872Z,16.70
2022-12-11T05:24:05.306Z,14.82
2022-12-11T05:26:34.538Z,17.05
2022-12-11T05:29:03.769Z,14.45
2022-12-11T05:31:33.111Z,13.27
2022-12-11T05:34:02.356Z,15.70
2022-12-11T05:36:32.865Z,14.57
2022-12-11T05:39:03.074Z,15.90
2022-12-11T05:41:33.056Z,13.93
2022-12-11T05:44:02.724Z,14.15
2022-12-11T05:46:32.948Z,15.10
2022-12-11T05:49:03.888Z,16.05
2022-12-11T05:51:34.302Z,15.05
2022-12-11T05:54:03.694Z,15.52
2022-12-11T05:56:34.057Z,13.73
2022-12-11T05:59:04.112Z,13.68
2022-12-11T06:01:35.184Z,14.70
2022-12-11T06:04:04.554Z,13.20
2022-12-11T06:06:34.451Z,14.48
2022-12-11T06:09:03.877Z,14.55
2022-12-11T06:11:33.787Z,14.82
2022-12-11T06:14:03.973Z,13.95
2022-12-11T06:16:33.317Z,14.40
2022-12-11T06:19:02.593Z,12.82
2022-12-11T06:21:33.151Z,12.38
2022-12-11T06:24:03.596Z,14.30
2022-12-11T06:26:33.395Z,15.02
2022-12-11T06:29:05.279Z,13.57
2022-12-11T06:31:38.215Z,12.18
2022-12-11T06:34:07.496Z,12.93
2022-12-11T06:36:36.862Z,11.25
2022-12-11T06:39:06.254Z,13.23
2022-12-11T06:41:35.521Z,11.48
2022-12-11T06:44:04.770Z,11.15
2022-12-11T06:46:33.971Z,10.32
2022-12-11T06:49:05.968Z,12.73
2022-12-11T06:51:35.348Z,11.88
2022-12-11T06:54:04.638Z,11.13
2022-12-11T06:56:33.898Z,10.90
2022-12-11T06:59:07.368Z,10.27
2022-12-11T07:01:36.995Z,9.35
2022-12-11T07:04:06.178Z,11.68
2022-12-11T07:06:35.468Z,11.10
2022-12-11T07:09:06.760Z,10.27
2022-12-11T07:11:35.998Z,10.38
2022-12-11T07:14:05.210Z,10.23
2022-12-11T07:16:34.589Z,10.10
2022-12-11T07:19:03.887Z,9.60
2022-12-11T07:21:34.404Z,10.75
2022-12-11T07:24:03.759Z,11.40
2022-12-11T07:26:32.985Z,12.18
2022-12-11T07:29:02.811Z,12.68
2022-12-11T07:31:32.772Z,10.90
2022-12-11T07:34:06.724Z,12.13
2022-12-11T07:36:36.664Z,12.55
2022-12-11T07:39:05.907Z,12.52
2022-12-11T07:41:35.220Z,13.00
2022-12-11T07:44:04.523Z,11.70
2022-12-11T07:46:34.571Z,10.85
2022-12-11T07:49:04.470Z,11.13
2022-12-11T07:51:35.518Z,10.60
2022-12-11T07:54:08.725Z,9.98
2022-12-11T07:56:43.894Z,10.82
2022-12-11T07:59:13.776Z,11.45
2022-12-11T08:01:44.272Z,10.90
2022-12-11T08:04:15.756Z,12.02
2022-12-11T08:06:45.472Z,10.60
2022-12-11T08:09:21.150Z,12.43
2022-12-11T08:11:51.479Z,11.05
2022-12-11T08:14:21.114Z,11.55
2022-12-11T08:16:51.485Z,12.52
2022-12-11T08:19:21.995Z,10.68
2022-12-11T08:21:52.896Z,10.82
2022-12-11T08:24:23.740Z,12.13
2022-12-11T08:26:53.276Z,10.18
2022-12-11T08:29:22.527Z,11.07
2022-12-11T08:31:51.745Z,11.00
2022-12-11T08:34:20.989Z,11.07
2022-12-11T08:36:50.213Z,11.45
2022-12-11T08:39:19.736Z,13.15
2022-12-11T08:41:48.987Z,11.18
2022-12-11T08:44:18.213Z,12.05
2022-12-11T08:46:48.188Z,14.77
2022-12-11T08:49:17.615Z,13.73
2022-12-11T08:51:46.849Z,14.00
2022-12-11T08:54:16.103Z,11.95
2022-12-11T08:56:45.308Z,11.48
2022-12-11T08:59:14.566Z,11.35
2022-12-11T09:01:45.069Z,9.80
2022-12-11T10:05:33.921Z,10.68
2022-12-11T10:08:05.981Z,10.20
2022-12-11T10:10:38.162Z,9.63
2022-12-11T10:13:16.554Z,9.75
2022-12-11T10:15:59.903Z,10.77
2022-12-11T10:18:31.021Z,10.65
2022-12-11T10:21:02.988Z,11.07
2022-12-11T10:23:35.786Z,12.15
2022-12-11T10:26:14.031Z,12.38
2022-12-11T10:28:43.269Z,10.77
2022-12-11T10:31:20.730Z,12.02
2022-12-11T10:34:03.580Z,11.85
2022-12-11T10:36:34.088Z,11.80
2022-12-11T10:39:03.831Z,9.50
2022-12-11T10:41:40.994Z,10.55
2022-12-11T10:44:29.959Z,9.23
2022-12-11T10:47:05.017Z,9.77
2022-12-11T10:49:36.016Z,9.23
2022-12-11T10:52:12.240Z,8.63
2022-12-11T10:54:43.023Z,9.40
2022-12-11T10:57:14.293Z,9.93
2022-12-11T10:59:46.831Z,9.20
2022-12-11T11:02:25.800Z,9.48
2022-12-11T11:04:56.013Z,8.63
2022-12-11T11:07:29.815Z,8.63
2022-12-11T11:10:14.054Z,8.25
2022-12-11T11:12:53.027Z,8.73
2022-12-11T11:15:25.227Z,8.82
2022-12-11T11:17:56.291Z,8.15
2022-12-11T11:20:27.216Z,8.70
2022-12-11T11:22:57.792Z,9.75
2022-12-11T11:25:28.703Z,9.95
2022-12-11T11:28:02.834Z,9.35
2022-12-11T11:30:33.975Z,8.43
2022-12-11T11:33:06.656Z,9.48
2022-12-11T11:35:35.835Z,9.93
2022-12-11T11:38:05.054Z,10.60
2022-12-11T11:40:38.311Z,8.75
2022-12-11T11:43:11.087Z,7.93
2022-12-11T11:45:54.512Z,7.88
2022-12-11T11:48:39.221Z,8.05
2022-12-11T11:51:17.455Z,9.35
2022-12-11T11:53:50.753Z,8.40
2022-12-11T11:56:24.731Z,8.23
2022-12-11T11:58:59.453Z,7.40
2022-12-11T12:01:28.878Z,7.63
2022-12-11T12:03:58.304Z,8.10
2022-12-11T12:06:30.594Z,8.02
2022-12-11T12:08:59.880Z,8.43
2022-12-11T12:11:43.495Z,7.88
2022-12-11T12:17:36.283Z,7.45
2022-12-11T12:20:24.569Z,8.20
2022-12-11T12:22:56.594Z,7.97
2022-12-11T12:25:28.875Z,8.27
2022-12-11T12:28:13.944Z,8.27
2022-12-11T12:30:49.577Z,8.10
2022-12-11T12:33:34.329Z,7.38
2022-12-11T12:36:09.665Z,8.32
2022-12-11T12:38:41.880Z,7.07
2022-12-11T12:41:20.178Z,8.23
2022-12-11T12:44:02.978Z,7.40
2022-12-11T12:49:01.931Z,8.13
2022-12-11T12:51:31.575Z,10.13
2022-12-11T12:54:02.216Z,8.52
2022-12-11T12:56:33.496Z,9.02
2022-12-11T12:59:02.731Z,9.10
2022-12-11T13:01:32.985Z,9.45
2022-12-11T13:04:08.671Z,9.48
2022-12-11T13:06:42.555Z,9.75
2022-12-11T13:09:14.979Z,10.77
2022-12-11T13:14:16.534Z,9.10
2022-12-11T13:19:21.072Z,9.68
2022-12-11T13:22:09.067Z,11.68
2022-12-11T13:24:48.479Z,11.23
2022-12-11T13:27:32.768Z,10.57
2022-12-11T13:30:24.465Z,10.80
2022-12-11T13:33:08.953Z,9.48
2022-12-11T13:35:38.351Z,9.70
2022-12-11T13:38:10.804Z,9.60
2022-12-11T13:43:12.474Z,8.65
2022-12-11T13:48:22.509Z,8.55
2022-12-11T13:50:52.697Z,8.75
2022-12-11T13:53:22.378Z,10.20
2022-12-11T13:56:02.089Z,9.02
2022-12-11T13:58:31.684Z,10.65
2022-12-11T14:01:11.163Z,10.40
2022-12-11T14:03:44.636Z,10.60
2022-12-11T14:06:18.573Z,9.27
2022-12-11T14:08:52.315Z,10.10
2022-12-11T14:11:27.890Z,8.93
2022-12-11T14:13:58.720Z,8.38
2022-12-11T14:16:29.058Z,10.35
2022-12-11T14:19:01.142Z,9.68
2022-12-11T14:21:30.419Z,8.65
2022-12-11T14:24:01.135Z,10.77
2022-12-11T14:26:40.450Z,11.27
2022-12-11T14:29:09.807Z,10.02
2022-12-11T14:31:40.285Z,9.30
2022-12-11T14:34:14.402Z,11.00
2022-12-11T14:36:44.685Z,8.52
2022-12-11T14:39:16.538Z,9.00
2022-12-11T14:41:50.994Z,9.55
2022-12-11T14:44:21.933Z,8.88
2022-12-11T14:46:51.287Z,9.70
2022-12-11T14:49:39.188Z,9.40
2022-12-11T14:52:09.106Z,9.90
2022-12-11T14:54:40.854Z,9.65
2022-12-11T14:57:10.965Z,8.88
2022-12-11T14:59:44.101Z,9.95
2022-12-11T15:02:29.676Z,8.45
2022-12-11T15:05:05.061Z,8.73
2022-12-11T15:07:34.626Z,8.38
2022-12-11T15:10:07.175Z,10.65
2022-12-11T15:12:36.802Z,8.73
2022-12-11T15:15:07.815Z,8.05
2022-12-11T15:17:37.772Z,9.18
2022-12-11T15:20:11.874Z,9.00
2022-12-11T15:22:45.072Z,8.02
2022-12-11T15:25:40.657Z,9.50
2022-12-11T15:28:28.259Z,8.82
2022-12-11T15:30:58.642Z,8.70
2022-12-11T15:33:33.878Z,7.18
2022-12-11T15:36:08.106Z,9.40
2022-12-11T15:38:37.677Z,8.43
2022-12-11T15:41:07.354Z,9.00
2022-12-11T15:43:38.666Z,8.48
2022-12-11T15:46:08.195Z,10.07
2022-12-11T15:48:37.493Z,7.97
2022-12-11T15:51:06.904Z,9.15
2022-12-11T15:53:36.116Z,9.07
2022-12-11T15:56:05.389Z,8.02
2022-12-11T15:58:35.632Z,8.13
2022-12-11T16:01:04.917Z,7.43
2022-12-11T16:03:34.780Z,7.47
2022-12-11T16:06:04.024Z,8.70
2022-12-11T16:08:33.339Z,8.10
2022-12-11T16:11:02.857Z,6.60
2022-12-11T16:13:32.122Z,7.75
2022-12-11T16:16:01.423Z,8.13
2022-12-11T16:18:30.654Z,8.13
2022-12-11T16:20:59.949Z,7.05
2022-12-11T16:23:29.724Z,8.43
2022-12-11T16:25:59.019Z,8.35
2022-12-11T16:28:28.240Z,7.20
2022-12-11T16:30:58.539Z,7.85
2022-12-11T16:33:27.836Z,8.75
2022-12-11T16:35:57.071Z,8.02
2022-12-11T16:38:26.436Z,8.23
2022-12-11T16:41:02.615Z,7.35
2022-12-11T16:43:31.912Z,7.15
2022-12-11T16:46:01.283Z,8.25
2022-12-11T16:48:30.568Z,8.35
2022-12-11T16:50:59.842Z,8.80
2022-12-11T16:53:29.328Z,9.15
2022-12-11T16:55:58.564Z,8.32
2022-12-11T16:58:27.827Z,9.05
2022-12-11T17:01:02.191Z,8.98
2022-12-11T17:03:32.818Z,8.23
2022-12-11T17:06:02.151Z,7.88
2022-12-11T17:08:31.419Z,8.45
2022-12-11T17:11:00.763Z,8.75
2022-12-11T17:13:35.727Z,8.35
2022-12-11T17:16:09.362Z,9.95
2022-12-11T17:18:38.882Z,9.55
2022-12-11T17:21:09.623Z,9.13
2022-12-11T17:23:38.915Z,10.10
2022-12-11T17:26:08.837Z,8.77
2022-12-11T17:28:38.892Z,9.93
2022-12-11T17:31:12.655Z,10.82
2022-12-11T17:33:42.287Z,8.70
2022-12-11T17:36:11.750Z,9.40
2022-12-11T17:38:40.981Z,8.98
2022-12-11T17:41:14.224Z,9.25
2022-12-11T17:43:43.884Z,10.05
2022-12-11T17:46:13.802Z,10.20
2022-12-11T17:48:43.122Z,9.90
2022-12-11T17:51:14.236Z,8.82
2022-12-11T17:53:43.428Z,9.48
2022-12-11T17:56:12.598Z,9.93
2022-12-11T17:58:41.924Z,9.10
2022-12-11T18:01:13.006Z,9.48
2022-12-11T18:03:42.437Z,9.05
2022-12-11T18:06:13.762Z,8.77
2022-12-11T18:08:44.417Z,12.75
2022-12-11T18:11:16.048Z,12.43
2022-12-11T18:13:46.235Z,11.30
2022-12-11T18:16:20.003Z,10.85
2022-12-11T18:18:50.436Z,9.30
2022-12-11T18:21:21.526Z,8.93
2022-12-11T18:23:52.505Z,8.90
2022-12-11T18:26:22.198Z,9.05
2022-12-11T18:28:52.986Z,10.98
2022-12-11T18:31:22.981Z,10.35
2022-12-11T18:33:52.788Z,9.52
2022-12-11T18:36:22.732Z,10.27
2022-12-11T18:38:52.010Z,8.13
2022-12-11T18:41:21.772Z,9.40
2022-12-11T18:43:51.044Z,9.45
2022-12-11T18:46:21.725Z,9.32
2022-12-11T18:48:51.139Z,9.85
2022-12-11T18:51:22.654Z,10.30
2022-12-11T18:53:52.161Z,9.90
2022-12-11T18:56:21.971Z,8.65
2022-12-11T18:58:52.946Z,10.20
2022-12-11T19:01:23.722Z,10.45
2022-12-11T19:03:56.334Z,10.00
2022-12-11T19:06:30.271Z,9.50
2022-12-11T19:08:59.931Z,10.18
2022-12-11T19:11:30.549Z,11.63
2022-12-11T19:14:00.280Z,10.98
2022-12-11T19:16:33.625Z,11.60
2022-12-11T19:19:04.264Z,11.18
2022-12-11T19:21:34.309Z,11.73
2022-12-11T19:24:03.645Z,11.75
2022-12-11T19:26:32.863Z,12.63
2022-12-11T19:29:02.441Z,11.82
2022-12-11T19:31:32.678Z,12.43
2022-12-11T19:34:02.916Z,12.13
2022-12-11T19:36:34.881Z,10.95
2022-12-11T19:39:08.320Z,11.80
2022-12-11T19:41:40.680Z,12.20
2022-12-11T19:44:10.233Z,10.40
2022-12-11T19:46:39.632Z,11.60
2022-12-11T19:49:09.054Z,11.15
2022-12-11T19:51:40.922Z,10.05
2022-12-11T19:54:11.562Z,10.93
2022-12-11T19:56:40.864Z,10.10
2022-12-11T19:59:11.303Z,10.60
2022-12-11T20:01:40.647Z,11.00
2022-12-11T20:04:12.805Z,12.15
2022-12-11T20:06:43.982Z,11.30
2022-12-11T20:09:14.210Z,9.93
2022-12-11T20:11:44.489Z,11.70
2022-12-11T20:14:21.722Z,11.05
2022-12-11T20:19:40.683Z,10.80
2022-12-11T20:22:10.004Z,9.57
2022-12-11T20:24:40.402Z,8.48
2022-12-11T20:27:12.417Z,8.25
2022-12-11T20:29:41.971Z,9.85
2022-12-11T20:32:11.379Z,10.60
2022-12-11T20:34:41.320Z,10.90
2022-12-11T20:37:10.656Z,10.63
2022-12-11T20:39:39.940Z,10.60
2022-12-11T20:42:11.166Z,9.77
2022-12-11T20:44:44.171Z,10.55
2022-12-11T20:47:19.731Z,10.07
2022-12-11T20:49:49.646Z,10.88
2022-12-11T20:52:19.239Z,10.32
2022-12-11T20:54:48.529Z,11.05
2022-12-11T20:57:18.528Z,11.20
2022-12-11T20:59:49.256Z,12.52
2022-12-11T21:02:18.777Z,10.70
2022-12-11T21:04:48.094Z,9.65
2022-12-11T21:07:17.366Z,9.95
2022-12-11T21:09:46.684Z,12.25
2022-12-11T21:12:15.927Z,9.88
2022-12-11T21:14:45.130Z,10.27
2022-12-11T21:17:14.448Z,9.80
2022-12-11T21:19:43.687Z,11.20
2022-12-11T21:22:12.942Z,10.57
2022-12-11T21:24:42.190Z,11.10
2022-12-11T21:27:11.488Z,9.88
2022-12-11T21:29:40.721Z,9.93
2022-12-11T21:32:09.986Z,8.90
2022-12-11T21:34:39.185Z,9.27
2022-12-11T21:37:08.388Z,10.60
2022-12-11T21:39:39.557Z,10.70
2022-12-11T21:42:08.904Z,10.65
2022-12-11T21:45:31.295Z,10.57
2022-12-11T21:47:31.300Z,12.75
2022-12-11T21:50:00.513Z,10.60
2022-12-11T21:52:30.035Z,10.60
2022-12-11T21:54:59.314Z,9.55
2022-12-11T21:57:28.542Z,9.00
2022-12-11T21:59:58.128Z,10.40
2022-12-11T22:02:27.425Z,9.52
2022-12-11T22:04:56.682Z,10.40
2022-12-11T22:07:26.045Z,11.27
2022-12-11T22:09:55.269Z,10.05
2022-12-11T22:12:26.009Z,9.55
2022-12-11T22:14:55.458Z,10.02
2022-12-11T22:17:24.785Z,10.02
2022-12-11T22:19:54.515Z,10.35
2022-12-11T22:22:23.775Z,10.13
2022-12-11T22:24:53.156Z,9.30
2022-12-11T22:27:24.070Z,9.23
2022-12-11T22:29:53.637Z,7.70
2022-12-11T22:32:22.873Z,9.27
2022-12-11T22:34:52.101Z,9.07
2022-12-11T22:37:21.348Z,8.80
2022-12-11T22:39:50.583Z,10.23
2022-12-11T22:42:19.873Z,9.30
2022-12-11T22:44:49.497Z,9.80
2022-12-11T22:47:18.741Z,8.90
2022-12-11T22:49:47.937Z,9.98
2022-12-11T22:52:17.202Z,9.23
2022-12-11T22:54:46.455Z,9.82
2022-12-11T22:57:16.497Z,10.23
2022-12-11T22:59:46.112Z,9.20
2022-12-11T23:02:15.465Z,8.60
2022-12-11T23:04:44.906Z,9.18
2022-12-11T23:07:14.169Z,9.18
2022-12-11T23:09:43.501Z,9.13
2022-12-11T23:12:12.768Z,8.77
2022-12-11T23:14:42.054Z,8.20
2022-12-11T23:17:11.482Z,9.13
2022-12-11T23:19:40.692Z,9.27
2022-12-11T23:22:09.897Z,7.90
2022-12-11T23:24:39.148Z,8.05
2022-12-11T23:27:08.434Z,9.45
2022-12-11T23:29:37.686Z,8.52
2022-12-11T23:32:07.022Z,8.27
2022-12-11T23:34:36.289Z,7.63
2022-12-11T23:37:05.522Z,7.70
2022-12-11T23:39:35.031Z,7.22
2022-12-11T23:42:04.308Z,8.07
2022-12-11T23:44:33.594Z,9.73
2022-12-11T23:47:02.917Z,8.93
2022-12-11T23:49:32.231Z,8.50
2022-12-11T23:52:01.468Z,8.45
2022-12-11T23:54:30.765Z,9.55
2022-12-11T23:57:00.020Z,9.50
2022-12-11T23:59:29.319Z,8.90
